createdAt,value
2023-01-01T00:00:18.515Z,2.40
2023-01-01T00:02:45.706Z,2.70
2023-01-01T00:05:12.749Z,2.92
2023-01-01T00:07:39.697Z,2.75
2023-01-01T00:10:25.597Z,2.65
2023-01-01T00:12:52.720Z,2.70
2023-01-01T00:15:19.789Z,2.80
2023-01-01T00:17:46.874Z,2.35
2023-01-01T00:20:14.426Z,2.72
2023-01-01T00:22:54.394Z,2.88
2023-01-01T00:25:21.858Z,2.78
2023-01-01T00:27:48.890Z,3.17
2023-01-01T00:30:16.032Z,3.20
2023-01-01T00:32:43.109Z,2.72
2023-01-01T00:35:22.450Z,3.00
2023-01-01T00:37:49.403Z,3.15
2023-01-01T00:40:16.417Z,3.03
2023-01-01T00:42:43.370Z,2.50
2023-01-01T00:45:14.204Z,3.05
2023-01-01T00:47:44.165Z,2.95
2023-01-01T00:50:11.189Z,2.90
2023-01-01T00:52:38.225Z,3.38
2023-01-01T00:55:05.439Z,2.72
2023-01-01T00:57:32.455Z,2.75
2023-01-01T00:59:59.509Z,2.80
2023-01-01T01:02:26.675Z,3.00
2023-01-01T01:04:53.754Z,3.28
2023-01-01T01:07:20.791Z,3.30
2023-01-01T01:09:47.733Z,2.67
2023-01-01T01:12:18.553Z,3.85
2023-01-01T01:14:47.151Z,3.00
2023-01-01T01:17:14.108Z,2.60
2023-01-01T01:19:41.293Z,2.47
2023-01-01T01:22:08.250Z,2.53
2023-01-01T01:24:35.260Z,2.65
2023-01-01T01:27:02.238Z,3.05
2023-01-01T01:29:29.237Z,2.47
2023-01-01T01:31:56.261Z,2.50
2023-01-01T01:34:27.782Z,2.83
2023-01-01T01:36:55.875Z,2.50
2023-01-01T01:39:23.043Z,2.53
2023-01-01T01:41:50.119Z,2.83
2023-01-01T01:44:48.268Z,2.75
2023-01-01T01:47:28.335Z,2.60
2023-01-01T01:50:09.228Z,2.83
2023-01-01T01:52:40.081Z,2.70
2023-01-01T01:55:09.876Z,3.00
2023-01-01T01:57:38.920Z,2.80
2023-01-01T02:00:10.973Z,2.35
2023-01-01T02:03:09.381Z,2.30
2023-01-01T02:05:39.358Z,2.78
2023-01-01T02:08:07.071Z,2.92
2023-01-01T02:10:34.687Z,2.88
2023-01-01T02:13:02.023Z,3.40
2023-01-01T02:15:34.817Z,2.50
2023-01-01T02:18:08.097Z,3.00
2023-01-01T02:21:01.031Z,2.97
2023-01-01T02:23:44.725Z,2.92
2023-01-01T02:26:38.764Z,2.60
2023-01-01T02:29:38.729Z,2.55
2023-01-01T02:32:32.037Z,2.50
2023-01-01T02:35:23.059Z,3.42
2023-01-01T02:37:54.625Z,2.92
2023-01-01T02:40:24.049Z,3.28
2023-01-01T02:42:52.458Z,2.67
2023-01-01T02:45:19.543Z,2.75
2023-01-01T02:47:46.510Z,2.97
2023-01-01T02:50:18.959Z,2.47
2023-01-01T02:52:51.096Z,2.72
2023-01-01T02:55:47.110Z,2.60
2023-01-01T02:58:45.977Z,2.83
2023-01-01T03:01:37.175Z,3.08
2023-01-01T03:04:19.128Z,2.67
2023-01-01T03:06:55.913Z,2.83
2023-01-01T03:09:42.935Z,3.22
2023-01-01T03:12:39.811Z,2.90
2023-01-01T03:15:29.139Z,2.85
2023-01-01T03:18:05.363Z,2.40
2023-01-01T03:20:35.039Z,3.08
2023-01-01T03:23:10.236Z,2.75
2023-01-01T03:25:45.430Z,2.80
2023-01-01T03:28:19.678Z,2.72
2023-01-01T03:30:49.670Z,2.60
2023-01-01T03:33:39.814Z,2.08
2023-01-01T03:36:12.570Z,2.75
2023-01-01T03:38:43.541Z,2.70
2023-01-01T03:41:21.163Z,2.55
2023-01-01T03:43:56.403Z,3.33
2023-01-01T03:46:30.141Z,3.00
2023-01-01T03:49:03.352Z,3.25
2023-01-01T03:52:03.077Z,2.53
2023-01-01T03:54:56.737Z,2.88
2023-01-01T03:57:31.694Z,2.72
2023-01-01T04:00:20.423Z,3.03
2023-01-01T04:03:10.748Z,2.60
2023-01-01T04:05:40.851Z,2.63
2023-01-01T04:08:08.432Z,3.15
2023-01-01T04:10:39.120Z,2.90
2023-01-01T04:13:06.905Z,2.72
2023-01-01T04:15:36.194Z,3.75
2023-01-01T04:18:03.738Z,2.55
2023-01-01T04:20:30.720Z,2.95
2023-01-01T04:22:59.658Z,3.05
2023-01-01T04:25:27.912Z,3.13
2023-01-01T04:27:58.338Z,3.05
2023-01-01T04:30:25.747Z,2.88
2023-01-01T04:32:52.764Z,2.92
2023-01-01T04:35:19.789Z,3.45
2023-01-01T04:37:46.753Z,2.92
2023-01-01T04:40:14.591Z,2.50
2023-01-01T04:42:41.878Z,3.00
2023-01-01T04:45:09.429Z,2.80
2023-01-01T04:47:36.429Z,3.20
2023-01-01T04:50:03.578Z,2.95
2023-01-01T04:52:30.544Z,2.70
2023-01-01T04:54:57.622Z,3.25
2023-01-01T04:57:24.582Z,2.75
2023-01-01T04:59:51.543Z,3.45
2023-01-01T05:02:18.586Z,3.53
2023-01-01T05:04:45.665Z,3.50
2023-01-01T05:07:12.632Z,3.50
2023-01-01T05:09:39.596Z,3.30
2023-01-01T05:12:06.875Z,2.92
2023-01-01T05:14:34.170Z,3.10
2023-01-01T05:17:01.172Z,3.53
2023-01-01T05:19:28.145Z,3.22
2023-01-01T05:21:55.802Z,3.05
2023-01-01T05:24:22.813Z,3.38
2023-01-01T05:26:49.855Z,3.03
2023-01-01T05:29:17.589Z,3.20
2023-01-01T05:31:45.956Z,2.80
2023-01-01T05:34:13.067Z,3.55
2023-01-01T05:36:40.205Z,2.90
2023-01-01T05:39:09.471Z,3.22
2023-01-01T05:41:36.963Z,2.97
2023-01-01T05:44:09.144Z,3.45
2023-01-01T05:46:36.780Z,3.22
2023-01-01T05:49:03.950Z,3.28
2023-01-01T05:53:58.917Z,2.80
2023-01-01T05:56:27.054Z,3.45
2023-01-01T05:58:54.829Z,3.25
2023-01-01T06:01:23.432Z,3.33
2023-01-01T06:03:51.059Z,3.45
2023-01-01T06:06:23.233Z,3.08
2023-01-01T06:08:52.622Z,3.78
2023-01-01T06:11:20.045Z,3.35
2023-01-01T06:13:47.528Z,3.17
2023-01-01T06:16:14.943Z,3.92
2023-01-01T06:18:42.061Z,2.42
2023-01-01T06:21:10.216Z,2.55
2023-01-01T06:23:37.578Z,3.08
2023-01-01T06:26:11.322Z,3.70
2023-01-01T06:28:38.651Z,2.65
2023-01-01T06:31:08.097Z,3.75
2023-01-01T06:33:35.591Z,2.97
2023-01-01T06:36:04.606Z,2.70
2023-01-01T06:38:37.099Z,2.80
2023-01-01T06:41:06.707Z,3.20
2023-01-01T06:43:35.372Z,2.85
2023-01-01T06:46:23.095Z,2.83
2023-01-01T06:48:53.105Z,3.15
2023-01-01T06:51:25.433Z,3.60
2023-01-01T06:53:53.228Z,3.20
2023-01-01T06:56:20.897Z,3.40
2023-01-01T06:58:48.192Z,2.78
2023-01-01T07:01:17.829Z,2.97
2023-01-01T07:03:50.311Z,3.17
2023-01-01T07:06:17.732Z,3.67
2023-01-01T07:08:44.751Z,3.70
2023-01-01T07:11:11.861Z,2.75
2023-01-01T07:13:38.795Z,3.20
2023-01-01T07:16:12.659Z,3.13
2023-01-01T07:18:40.930Z,3.35
2023-01-01T07:21:29.529Z,3.13
2023-01-01T07:23:58.868Z,3.20
2023-01-01T07:26:27.155Z,3.30
2023-01-01T07:28:54.215Z,3.58
2023-01-01T07:31:21.306Z,3.00
2023-01-01T07:33:48.577Z,2.60
2023-01-01T07:36:16.621Z,3.20
2023-01-01T07:38:43.707Z,3.08
2023-01-01T07:41:10.643Z,3.15
2023-01-01T07:43:37.633Z,3.42
2023-01-01T07:46:05.085Z,3.28
2023-01-01T07:48:36.158Z,3.20
2023-01-01T07:51:06.887Z,3.33
2023-01-01T07:53:33.942Z,3.45
2023-01-01T07:56:01.021Z,3.25
2023-01-01T07:58:27.986Z,3.33
2023-01-01T08:00:55.021Z,3.25
2023-01-01T08:03:21.972Z,3.38
2023-01-01T08:05:49.018Z,3.50
2023-01-01T08:08:16.019Z,3.78
2023-01-01T08:10:42.976Z,3.60
2023-01-01T08:13:10.063Z,3.90
2023-01-01T08:15:37.126Z,3.30
2023-01-01T08:18:05.745Z,3.40
2023-01-01T08:20:34.422Z,3.22
2023-01-01T08:23:07.386Z,3.58
2023-01-01T08:25:35.368Z,3.03
2023-01-01T08:28:02.340Z,3.00
2023-01-01T08:30:29.386Z,2.97
2023-01-01T08:32:56.435Z,3.45
2023-01-01T08:35:23.459Z,3.03
2023-01-01T08:37:50.418Z,2.67
2023-01-01T08:40:17.467Z,3.05
2023-01-01T08:42:44.441Z,3.00
2023-01-01T08:45:11.612Z,3.20
2023-01-01T08:47:38.612Z,2.40
2023-01-01T08:50:06.056Z,2.95
2023-01-01T08:52:33.097Z,2.97
2023-01-01T08:55:01.074Z,2.80
2023-01-01T08:57:31.585Z,2.83
2023-01-01T08:59:58.618Z,3.40
2023-01-01T09:02:25.724Z,2.88
2023-01-01T09:04:52.913Z,2.90
2023-01-01T09:07:19.918Z,2.50
2023-01-01T09:09:46.930Z,2.90
2023-01-01T09:12:16.671Z,3.10
2023-01-01T09:14:46.815Z,3.10
2023-01-01T09:17:14.676Z,2.95
2023-01-01T09:19:41.803Z,3.03
2023-01-01T09:22:12.321Z,3.63
2023-01-01T09:24:39.573Z,3.03
2023-01-01T09:27:06.560Z,2.33
2023-01-01T09:29:33.635Z,3.08
2023-01-01T09:32:00.708Z,2.88
2023-01-01T09:34:28.281Z,3.08
2023-01-01T09:36:55.280Z,3.15
2023-01-01T09:39:22.282Z,2.97
2023-01-01T09:42:12.211Z,3.45
2023-01-01T09:45:17.080Z,3.75
2023-01-01T09:50:17.882Z,3.03
2023-01-01T09:52:52.102Z,3.42
2023-01-01T09:55:47.548Z,3.42
2023-01-01T09:58:15.108Z,3.65
2023-01-01T10:00:49.148Z,3.17
2023-01-01T10:03:37.641Z,4.13
2023-01-01T10:06:22.602Z,3.65
2023-01-01T10:09:04.558Z,3.45
2023-01-01T10:12:21.210Z,3.40
2023-01-01T10:15:20.163Z,3.78
2023-01-01T10:17:53.463Z,4.07
2023-01-01T10:20:38.899Z,3.00
2023-01-01T10:23:28.624Z,3.80
2023-01-01T10:25:58.622Z,3.60
2023-01-01T10:29:03.468Z,3.30
2023-01-01T10:34:22.469Z,4.22
2023-01-01T10:36:53.890Z,3.88
2023-01-01T10:39:21.042Z,4.07
2023-01-01T10:41:48.629Z,3.38
2023-01-01T10:44:20.417Z,3.67
2023-01-01T10:46:53.092Z,4.57
2023-01-01T10:49:20.123Z,3.70
2023-01-01T10:51:49.866Z,3.72
2023-01-01T10:54:37.785Z,3.90
2023-01-01T10:57:28.121Z,3.63
2023-01-01T11:00:27.163Z,4.05
2023-01-01T11:03:21.981Z,3.28
2023-01-01T11:06:07.928Z,3.63
2023-01-01T11:08:37.442Z,3.75
2023-01-01T11:11:05.019Z,3.35
2023-01-01T11:13:34.237Z,3.58
2023-01-01T11:16:02.112Z,3.47
2023-01-01T11:18:36.694Z,3.70
2023-01-01T11:21:07.292Z,3.67
2023-01-01T11:23:39.904Z,4.28
2023-01-01T11:26:21.108Z,3.80
2023-01-01T11:29:17.017Z,4.28
2023-01-01T11:31:46.941Z,4.55
2023-01-01T11:34:37.094Z,3.97
2023-01-01T11:37:29.399Z,3.85
2023-01-01T11:39:58.852Z,3.58
2023-01-01T11:42:31.433Z,3.58
2023-01-01T11:45:06.713Z,3.63
2023-01-01T11:47:38.353Z,3.75
2023-01-01T11:50:14.665Z,4.13
2023-01-01T11:52:48.288Z,4.72
2023-01-01T11:55:22.703Z,3.40
2023-01-01T11:58:22.389Z,4.32
2023-01-01T12:00:54.386Z,4.45
2023-01-01T12:03:49.287Z,4.32
2023-01-01T12:06:26.173Z,4.40
2023-01-01T12:09:18.481Z,3.90
2023-01-01T12:12:02.018Z,3.85
2023-01-01T12:14:50.540Z,3.88
2023-01-01T12:17:18.019Z,4.53
2023-01-01T12:20:12.220Z,3.70
2023-01-01T12:22:40.878Z,3.78
2023-01-01T12:25:13.598Z,5.10
2023-01-01T12:27:55.671Z,3.70
2023-01-01T12:30:34.177Z,3.90
2023-01-01T12:33:18.283Z,3.60
2023-01-01T12:36:03.792Z,4.13
2023-01-01T12:38:51.579Z,3.75
2023-01-01T12:42:05.560Z,4.20
2023-01-01T12:45:05.210Z,3.35
2023-01-01T12:47:42.789Z,3.60
2023-01-01T12:50:21.726Z,3.50
2023-01-01T12:52:59.892Z,3.53
2023-01-01T12:55:35.852Z,3.88
2023-01-01T12:58:15.600Z,3.90
2023-01-01T13:00:48.415Z,4.00
2023-01-01T13:03:33.645Z,3.83
2023-01-01T13:06:02.301Z,4.60
2023-01-01T13:08:29.314Z,4.40
2023-01-01T13:10:59.494Z,4.03
2023-01-01T13:13:26.970Z,3.95
2023-01-01T13:15:58.078Z,4.38
2023-01-01T13:18:33.436Z,4.18
2023-01-01T13:21:07.364Z,3.92
2023-01-01T13:26:32.162Z,3.80
2023-01-01T13:28:59.103Z,3.75
2023-01-01T13:31:38.561Z,4.18
2023-01-01T13:34:30.595Z,3.53
2023-01-01T13:37:27.644Z,3.65
2023-01-01T13:40:02.923Z,4.07
2023-01-01T13:42:59.179Z,4.35
2023-01-01T13:46:14.536Z,3.60
2023-01-01T13:49:09.494Z,3.67
2023-01-01T13:54:41.754Z,4.03
2023-01-01T13:57:23.639Z,4.57
2023-01-01T14:00:02.882Z,3.50
2023-01-01T14:02:59.144Z,4.00
2023-01-01T14:06:01.849Z,4.05
2023-01-01T14:08:35.011Z,4.38
2023-01-01T14:11:04.272Z,3.93
2023-01-01T14:13:40.212Z,4.20
2023-01-01T14:16:13.752Z,3.38
2023-01-01T14:18:47.944Z,3.80
2023-01-01T14:21:23.910Z,3.97
2023-01-01T14:24:03.772Z,3.70
2023-01-01T14:26:33.304Z,3.78
2023-01-01T14:29:05.944Z,4.10
2023-01-01T14:31:40.343Z,4.18
2023-01-01T14:34:26.952Z,4.00
2023-01-01T14:36:55.719Z,3.35
2023-01-01T14:39:31.006Z,3.88
2023-01-01T14:42:02.357Z,4.30
2023-01-01T14:44:44.795Z,4.22
2023-01-01T14:47:35.463Z,4.40
2023-01-01T14:50:10.180Z,3.63
2023-01-01T14:52:37.286Z,3.33
2023-01-01T14:55:05.964Z,3.85
2023-01-01T14:57:36.588Z,3.55
2023-01-01T15:00:25.459Z,3.97
2023-01-01T15:02:52.699Z,3.85
2023-01-01T15:05:35.839Z,3.75
2023-01-01T15:08:06.385Z,3.60
2023-01-01T15:10:37.418Z,3.97
2023-01-01T15:13:07.937Z,3.47
2023-01-01T15:15:43.258Z,4.13
2023-01-01T15:18:42.347Z,3.60
2023-01-01T15:21:31.222Z,4.30
2023-01-01T15:24:00.127Z,4.50
2023-01-01T15:26:31.267Z,3.58
2023-01-01T15:29:00.000Z,4.72
2023-01-01T15:31:46.736Z,4.40
2023-01-01T15:34:36.865Z,4.63
2023-01-01T15:37:29.513Z,4.68
2023-01-01T15:39:58.923Z,4.28
2023-01-01T15:42:37.251Z,4.03
2023-01-01T15:45:22.531Z,4.18
2023-01-01T15:47:51.868Z,4.82
2023-01-01T15:50:38.276Z,4.40
2023-01-01T15:53:15.515Z,4.15
2023-01-01T15:55:54.395Z,4.50
2023-01-01T15:58:30.563Z,3.97
2023-01-01T16:01:04.171Z,4.55
2023-01-01T16:03:33.223Z,4.10
2023-01-01T16:06:00.810Z,4.18
2023-01-01T16:08:27.910Z,4.38
2023-01-01T16:10:54.886Z,4.18
2023-01-01T16:13:21.944Z,3.70
2023-01-01T16:16:00.262Z,4.50
2023-01-01T16:18:36.357Z,4.15
2023-01-01T16:21:05.418Z,5.80
2023-01-01T16:23:32.350Z,7.65
2023-01-01T16:25:59.411Z,4.43
2023-01-01T16:28:26.375Z,4.93
2023-01-01T16:30:53.417Z,4.68
2023-01-01T16:33:22.913Z,4.75
2023-01-01T16:35:51.153Z,4.70
2023-01-01T16:38:18.715Z,4.82
2023-01-01T16:40:45.714Z,4.20
2023-01-01T16:43:17.822Z,4.32
2023-01-01T16:45:45.267Z,4.65
2023-01-01T16:48:12.332Z,4.72
2023-01-01T16:50:39.434Z,5.32
2023-01-01T16:53:06.391Z,4.53
2023-01-01T16:55:33.468Z,4.60
2023-01-01T16:58:38.063Z,4.93
2023-01-01T17:00:47.740Z,5.10
2023-01-01T17:03:14.924Z,4.60
2023-01-01T17:05:44.704Z,5.13
2023-01-01T17:08:12.071Z,5.75
2023-01-01T17:10:39.116Z,5.20
2023-01-01T17:13:06.175Z,4.70
2023-01-01T17:15:33.339Z,5.28
2023-01-01T17:18:00.489Z,5.20
2023-01-01T17:20:27.644Z,5.70
2023-01-01T17:22:54.714Z,6.05
2023-01-01T17:25:22.242Z,5.28
2023-01-01T17:27:49.217Z,6.00
2023-01-01T17:30:16.377Z,5.65
2023-01-01T17:32:43.393Z,5.68
2023-01-01T17:35:10.580Z,6.20
2023-01-01T17:37:37.641Z,6.60
2023-01-01T17:40:05.175Z,6.45
2023-01-01T17:42:32.117Z,6.72
2023-01-01T17:44:59.128Z,6.72
2023-01-01T17:47:30.865Z,7.13
2023-01-01T17:49:59.812Z,6.20
2023-01-01T17:52:26.830Z,6.65
2023-01-01T17:54:53.857Z,6.47
2023-01-01T17:57:20.843Z,6.40
2023-01-01T17:59:47.922Z,7.32
2023-01-01T18:02:15.421Z,7.43
2023-01-01T18:04:42.637Z,7.22
2023-01-01T18:07:09.586Z,7.15
2023-01-01T18:09:38.315Z,7.32
2023-01-01T18:12:05.972Z,6.28
2023-01-01T18:14:33.190Z,7.32
2023-01-01T18:17:00.195Z,6.88
2023-01-01T18:19:27.858Z,6.57
2023-01-01T18:21:54.948Z,7.43
2023-01-01T18:24:21.923Z,6.80
2023-01-01T18:26:50.097Z,7.03
2023-01-01T18:29:17.239Z,6.57
2023-01-01T18:31:44.278Z,7.22
2023-01-01T18:34:11.554Z,6.75
2023-01-01T18:36:39.518Z,7.05
2023-01-01T18:39:15.320Z,7.53
2023-01-01T18:41:42.328Z,6.93
2023-01-01T18:44:24.211Z,6.82
2023-01-01T18:46:59.688Z,6.90
2023-01-01T18:49:26.796Z,6.93
2023-01-01T18:52:07.683Z,7.43
2023-01-01T18:54:35.407Z,7.18
2023-01-01T18:57:23.668Z,7.22
2023-01-01T18:59:59.345Z,6.82
2023-01-01T19:02:39.572Z,7.30
2023-01-01T19:05:31.208Z,6.93
2023-01-01T19:08:07.476Z,6.32
2023-01-01T19:10:56.952Z,6.50
2023-01-01T19:13:35.748Z,6.65
2023-01-01T19:16:11.847Z,6.20
2023-01-01T19:18:46.219Z,7.00
2023-01-01T19:21:13.196Z,6.53
2023-01-01T19:23:51.890Z,6.15
2023-01-01T19:26:32.132Z,6.40
2023-01-01T19:29:09.990Z,6.55
2023-01-01T19:31:37.126Z,7.15
2023-01-01T19:34:04.185Z,7.75
2023-01-01T19:36:31.413Z,6.95
2023-01-01T19:38:58.459Z,6.50
2023-01-01T19:41:25.720Z,7.15
2023-01-01T19:43:52.774Z,7.28
2023-01-01T19:46:19.926Z,6.55
2023-01-01T19:48:46.943Z,6.70
2023-01-01T19:51:13.995Z,7.38
2023-01-01T19:53:41.066Z,7.95
2023-01-01T19:56:08.153Z,6.28
2023-01-01T19:58:35.197Z,6.88
2023-01-01T20:01:03.181Z,6.95
2023-01-01T20:06:17.351Z,6.75
2023-01-01T20:08:44.306Z,6.50
2023-01-01T20:11:11.388Z,7.35
2023-01-01T20:13:38.383Z,6.65
2023-01-01T20:16:05.941Z,6.43
2023-01-01T20:18:33.118Z,6.75
2023-01-01T20:21:23.696Z,7.13
2023-01-01T20:23:52.931Z,6.88
2023-01-01T20:26:20.909Z,6.65
2023-01-01T20:29:06.774Z,6.85
2023-01-01T20:31:33.848Z,6.78
2023-01-01T20:34:00.794Z,6.90
2023-01-01T20:36:46.916Z,7.10
2023-01-01T20:39:13.920Z,7.13
2023-01-01T20:41:40.879Z,7.70
2023-01-01T20:44:07.893Z,7.03
2023-01-01T20:46:36.162Z,7.50
2023-01-01T20:49:03.443Z,7.25
2023-01-01T20:51:30.456Z,7.28
2023-01-01T20:53:57.456Z,7.30
2023-01-01T20:56:24.463Z,6.13
2023-01-01T20:58:57.627Z,7.07
2023-01-01T21:01:27.689Z,6.75
2023-01-01T21:03:54.767Z,7.05
2023-01-01T21:06:24.755Z,6.95
2023-01-01T21:08:52.811Z,6.20
2023-01-01T21:11:19.908Z,6.45
2023-01-01T21:13:47.563Z,5.97
2023-01-01T21:16:22.247Z,6.38
2023-01-01T21:18:49.736Z,6.43
2023-01-01T21:21:20.536Z,6.43
2023-01-01T21:23:48.560Z,6.80
2023-01-01T21:26:19.253Z,6.53
2023-01-01T21:28:47.163Z,6.63
2023-01-01T21:31:15.536Z,7.85
2023-01-01T21:33:44.252Z,6.88
2023-01-01T21:36:18.528Z,6.45
2023-01-01T21:38:47.508Z,6.68
2023-01-01T21:41:22.450Z,6.82
2023-01-01T21:43:58.589Z,6.63
2023-01-01T21:46:35.633Z,6.50
2023-01-01T21:49:27.044Z,6.25
2023-01-01T21:51:58.551Z,6.03
2023-01-01T21:54:39.569Z,6.90
2023-01-01T21:57:22.633Z,6.53
2023-01-01T21:59:51.261Z,6.28
2023-01-01T22:02:30.230Z,6.80
2023-01-01T22:04:59.364Z,6.60
2023-01-01T22:10:36.009Z,6.30
2023-01-01T22:13:03.425Z,6.63
2023-01-01T22:15:44.145Z,7.00
2023-01-01T22:18:28.543Z,6.55
2023-01-01T22:20:56.360Z,6.97
2023-01-01T22:23:34.340Z,6.82
2023-01-01T22:26:14.826Z,6.15
2023-01-01T22:28:44.419Z,6.40
2023-01-01T22:31:18.388Z,6.18
2023-01-01T22:33:47.788Z,6.57
2023-01-01T22:36:41.241Z,6.97
2023-01-01T22:39:19.314Z,6.85
2023-01-01T22:41:50.801Z,6.63
2023-01-01T22:44:17.801Z,6.15
2023-01-01T22:46:44.817Z,6.47
2023-01-01T22:49:19.187Z,7.03
2023-01-01T22:51:47.429Z,7.03
2023-01-01T22:54:14.480Z,6.07
2023-01-01T22:56:41.463Z,6.70
2023-01-01T22:59:08.574Z,6.05
2023-01-01T23:01:35.656Z,7.22
2023-01-01T23:04:02.628Z,6.65
2023-01-01T23:06:29.734Z,5.80
2023-01-01T23:08:56.996Z,6.35
2023-01-01T23:11:24.221Z,5.88
2023-01-01T23:14:10.626Z,6.20
2023-01-01T23:16:37.693Z,5.68
2023-01-01T23:19:05.150Z,5.75
2023-01-01T23:21:33.786Z,6.60
2023-01-01T23:24:04.153Z,6.13
2023-01-01T23:26:31.360Z,6.88
2023-01-01T23:28:58.442Z,5.57
2023-01-01T23:31:27.496Z,5.82
2023-01-01T23:33:55.869Z,5.43
2023-01-01T23:36:26.904Z,5.47
2023-01-01T23:38:53.997Z,5.20
2023-01-01T23:41:22.468Z,5.18
2023-01-01T23:43:50.077Z,5.47
2023-01-01T23:46:18.163Z,5.45
2023-01-01T23:48:46.994Z,5.00
2023-01-01T23:51:14.964Z,4.88
2023-01-01T23:53:41.928Z,5.53
2023-01-01T23:56:08.891Z,4.72
2023-01-01T23:58:35.896Z,4.80
